Time;durP1;ratioP1;P1;durP2;ratioP2;P2;SDS_P1;SDS_P2;PMS_P1;PMS_P2;Temp;Humidity;BMP_temperature;BMP_pressure;BME280_temperature;BME280_humidity;BME280_pressure;Samples;Min_cycle;Max_cycle;Signal;HPM_P1;HPM_P2
2022/08/14 00:01:50;;;;;;;7.63;2.83;;;;;;;27.34;32.75;101034.94;5049051;28;20053;-63
2022/08/14 00:04:22;;;;;;;3.58;2.60;;;;;;;27.30;32.52;101022.94;5048458;28;20108;-63
2022/08/14 00:07:10;;;;;;;6.82;2.90;;;;;;;27.26;32.80;101022.00;5033024;28;20411;-63
2022/08/14 00:09:41;;;;;;;5.07;2.63;;;;;;;27.20;32.80;101013.09;5028641;28;20053;-63
2022/08/14 00:12:29;;;;;;;3.75;2.60;;;;;;;27.20;32.68;101011.13;5028757;28;20145;-63
2022/08/14 00:15:10;;;;;;;4.95;2.67;;;;;;;27.17;32.89;101006.28;5029159;28;20120;-63
2022/08/14 00:17:41;;;;;;;3.83;2.70;;;;;;;27.15;32.95;101010.50;5028480;28;20050;-63
2022/08/14 00:20:22;;;;;;;5.20;2.65;;;;;;;27.07;32.84;100992.03;5029056;28;20113;-63
2022/08/14 00:23:04;;;;;;;3.55;2.58;;;;;;;27.09;33.25;100998.84;5027997;28;20081;-63
2022/08/14 00:25:42;;;;;;;4.32;2.95;;;;;;;27.07;33.16;100995.59;5028262;28;20492;-63
2022/08/14 00:28:26;;;;;;;3.58;2.60;;;;;;;27.05;33.12;100991.53;5028641;28;20080;-63
2022/08/14 00:31:03;;;;;;;3.30;2.47;;;;;;;27.03;33.27;100997.38;5028478;28;20076;-63
2022/08/14 00:33:31;;;;;;;4.38;2.45;;;;;;;27.00;33.40;100994.47;5028514;28;20104;-63
2022/08/14 00:36:20;;;;;;;3.38;2.67;;;;;;;26.98;33.29;100986.53;5028713;28;20056;-63
2022/08/14 00:39:08;;;;;;;3.47;2.70;;;;;;;26.94;33.37;100985.53;5028100;28;20064;-62
2022/08/14 00:41:37;;;;;;;3.65;2.70;;;;;;;26.92;33.43;100983.09;5027812;28;20080;-63
2022/08/14 00:44:06;;;;;;;7.97;2.67;;;;;;;26.89;33.44;100983.75;5027850;28;20057;-63
2022/08/14 00:46:36;;;;;;;3.97;2.70;;;;;;;26.88;33.32;100982.13;5028197;28;20094;-63
2022/08/14 00:49:04;;;;;;;5.95;2.63;;;;;;;26.85;33.42;100973.72;5028388;28;20462;-63
2022/08/14 00:51:32;;;;;;;3.70;2.80;;;;;;;26.83;33.56;100970.47;5028073;28;20052;-63
2022/08/14 00:54:05;;;;;;;6.00;3.03;;;;;;;26.82;33.68;100972.41;5027804;28;20049;-63
2022/08/14 00:56:48;;;;;;;3.80;2.70;;;;;;;26.81;33.62;100965.28;5033534;28;20045;-62
2022/08/14 00:59:16;;;;;;;3.55;2.75;;;;;;;26.80;33.56;100960.91;5047749;28;20053;-62
2022/08/14 01:01:47;;;;;;;5.38;3.05;;;;;;;26.78;33.67;100967.88;5047637;28;20073;-63
2022/08/14 01:04:16;;;;;;;5.00;2.92;;;;;;;26.76;33.72;100957.19;5046354;28;20137;-63
2022/08/14 01:07:06;;;;;;;4.10;2.50;;;;;;;26.75;33.78;100963.03;5047544;28;20109;-63
2022/08/14 01:09:36;;;;;;;4.55;3.03;;;;;;;26.73;33.73;100951.53;5028869;28;20565;-63
2022/08/14 01:12:06;;;;;;;6.50;3.20;;;;;;;26.72;33.70;100950.72;5027837;28;20057;-63
2022/08/14 01:14:34;;;;;;;4.53;2.83;;;;;;;26.70;33.85;100946.66;5027307;28;20046;-63
2022/08/14 01:17:04;;;;;;;4.45;2.92;;;;;;;26.68;33.89;100944.22;5027565;28;20041;-63
2022/08/14 01:22:22;;;;;;;5.65;2.90;;;;;;;26.64;33.83;100946.03;5027624;28;20084;-63
2022/08/14 01:24:53;;;;;;;4.75;3.35;;;;;;;26.63;33.91;100938.88;5027166;28;20096;-62
2022/08/14 01:27:23;;;;;;;4.72;3.33;;;;;;;26.61;33.96;100940.34;5027650;28;20403;-63
2022/08/14 01:29:54;;;;;;;3.80;3.10;;;;;;;26.59;33.96;100937.91;5027376;28;20053;-63
2022/08/14 01:32:27;;;;;;;;;;;;;;;26.57;34.13;100948.47;5027820;28;20081;-63
2022/08/14 01:34:56;;;;;;;4.57;3.42;;;;;;;26.55;34.06;100945.22;5038337;28;19982;-63
2022/08/14 01:37:47;;;;;;;6.45;3.42;;;;;;;26.52;33.99;100940.38;5047061;28;20056;-63
2022/08/14 01:40:24;;;;;;;4.22;3.13;;;;;;;26.50;34.02;100937.94;5046026;28;20100;-63
2022/08/14 01:43:00;;;;;;;5.82;3.13;;;;;;;26.48;34.06;100942.97;5027081;28;20272;-63
2022/08/14 01:45:29;;;;;;;5.30;3.30;;;;;;;26.46;34.12;100948.00;5027344;28;20042;-63
2022/08/14 01:48:07;;;;;;;4.47;2.90;;;;;;;26.43;34.07;100947.84;5026623;28;20499;-63
2022/08/14 01:50:41;;;;;;;5.22;3.15;;;;;;;26.42;34.17;100949.78;5027123;28;20054;-62
2022/08/14 01:53:11;;;;;;;4.45;3.25;;;;;;;26.40;34.21;100937.47;5042307;28;20076;-63
2022/08/14 01:55:39;;;;;;;6.15;3.13;;;;;;;26.39;34.13;100938.59;5046499;28;20076;-62
2022/08/14 01:58:11;;;;;;;5.38;3.10;;;;;;;26.34;34.32;100934.06;5046009;28;20057;-63
2022/08/14 02:00:52;;;;;;;5.82;3.80;;;;;;;26.28;34.39;100929.81;5026851;28;20058;-63
2022/08/14 02:03:23;;;;;;;5.32;3.33;;;;;;;26.27;34.29;100929.00;5026540;28;20064;-63
2022/08/14 02:05:58;;;;;;;3.65;3.17;;;;;;;26.25;34.33;100930.47;5026873;28;20068;-63
2022/08/14 02:08:32;;;;;;;4.90;3.63;;;;;;;26.19;34.30;100924.31;5032080;28;20072;-63
2022/08/14 02:11:21;;;;;;;5.45;3.30;;;;;;;26.18;34.41;100922.69;5046147;28;20109;-63
2022/08/14 02:13:51;;;;;;;3.88;3.20;;;;;;;26.16;34.32;100926.91;5046253;28;20049;-63
2022/08/14 02:16:24;;;;;;;3.80;3.15;;;;;;;26.15;34.56;100930.81;5046250;28;20056;-63
2022/08/14 02:18:55;;;;;;;5.25;3.30;;;;;;;26.13;34.51;100922.88;5045201;28;20049;-63
2022/08/14 02:21:25;;;;;;;7.35;2.92;;;;;;;26.08;34.56;100928.53;5046385;28;20076;-63
2022/08/14 02:23:55;;;;;;;4.45;3.00;;;;;;;26.06;34.59;100927.25;5044871;28;20045;-63
2022/08/14 02:26:26;;;;;;;6.72;3.33;;;;;;;26.04;34.53;100927.56;5045788;28;20057;-63
2022/08/14 02:28:59;;;;;;;6.30;3.17;;;;;;;26.02;34.60;100929.81;5045289;28;20049;-63
2022/08/14 02:31:32;;;;;;;5.32;2.72;;;;;;;26.00;34.52;100928.56;5046002;28;20045;-63
2022/08/14 02:34:13;;;;;;;4.38;2.80;;;;;;;25.98;34.53;100917.06;5031704;28;20065;-62
2022/08/14 02:36:54;;;;;;;4.63;2.85;;;;;;;25.96;34.73;100913.81;5026556;28;20046;-63
2022/08/14 02:39:37;;;;;;;6.53;3.20;;;;;;;25.93;34.64;100918.03;5026254;28;20132;-63
2022/08/14 02:42:06;;;;;;;4.88;2.90;;;;;;;25.90;34.58;100913.97;5026451;28;20046;-63
2022/08/14 02:44:41;;;;;;;4.18;2.90;;;;;;;25.86;34.77;100921.25;5030191;28;20041;-62
2022/08/14 02:47:18;;;;;;;4.43;3.13;;;;;;;25.84;34.72;100909.75;5045824;28;20052;-63
2022/08/14 02:49:48;;;;;;;3.75;2.90;;;;;;;25.82;34.91;100906.53;5045886;28;20053;-63
2022/08/14 02:52:22;;;;;;;4.43;2.95;;;;;;;25.81;34.97;100910.41;5026307;28;20077;-63
2022/08/14 02:55:11;;;;;;;4.35;2.90;;;;;;;25.77;34.89;100903.91;5025750;28;20113;-62
2022/08/14 02:57:50;;;;;;;4.15;3.10;;;;;;;25.79;34.88;100904.41;5026423;28;20053;-62
2022/08/14 03:00:25;;;;;;;8.70;3.20;;;;;;;25.78;35.00;100904.72;5026156;28;20121;-63
2022/08/14 03:02:54;;;;;;;5.18;3.13;;;;;;;25.76;34.83;100896.81;5025824;28;20113;-63
2022/08/14 03:05:29;;;;;;;4.07;3.10;;;;;;;25.71;34.95;100896.94;5026056;28;20112;-63
2022/08/14 03:08:08;;;;;;;3.90;2.90;;;;;;;25.69;35.19;100896.47;5025965;28;20053;-63
2022/08/14 03:10:40;;;;;;;5.03;3.00;;;;;;;25.69;35.02;100898.41;5025793;28;20093;-63
2022/08/14 03:13:09;;;;;;;4.00;2.83;;;;;;;25.66;35.11;100897.09;5025914;28;20122;-63
2022/08/14 03:15:52;;;;;;;5.60;3.30;;;;;;;25.65;34.98;100897.44;5026286;28;20073;-63
2022/08/14 03:18:24;;;;;;;4.93;3.13;;;;;;;25.63;35.01;100897.72;5025672;28;20133;-63
2022/08/14 03:21:00;;;;;;;6.97;3.63;;;;;;;25.61;35.08;100895.28;5026036;28;20084;-63
2022/08/14 03:23:34;;;;;;;5.93;3.60;;;;;;;25.57;35.04;100893.50;5025810;28;20121;-63
2022/08/14 03:26:07;;;;;;;6.18;3.10;;;;;;;25.57;35.17;100899.81;5025300;28;20046;-63
2022/08/14 03:28:40;;;;;;;6.00;3.97;;;;;;;25.55;35.47;100893.00;5034751;28;20085;-63
2022/08/14 03:31:10;;;;;;;4.55;3.20;;;;;;;25.53;35.30;100895.28;5045670;28;20080;-63
2022/08/14 03:33:40;;;;;;;4.53;3.13;;;;;;;25.50;35.10;100885.72;5045336;28;20103;-63
2022/08/14 03:36:13;;;;;;;6.22;3.40;;;;;;;25.48;35.37;100876.97;5043027;28;20041;-63
2022/08/14 03:39:04;;;;;;;5.10;3.20;;;;;;;25.46;35.34;100883.94;5025404;28;20053;-63
2022/08/14 03:41:47;;;;;;;6.50;3.30;;;;;;;25.44;35.47;100880.69;5025345;28;20113;-63
2022/08/14 03:44:15;;;;;;;4.53;3.45;;;;;;;25.43;35.61;100876.31;5025587;28;20077;-62
2022/08/14 03:47:03;;;;;;;5.05;3.33;;;;;;;25.39;35.47;100889.91;5025483;28;20050;-63
2022/08/14 03:49:32;;;;;;;4.72;3.60;;;;;;;25.38;35.73;100879.22;5025742;28;20252;-62
2022/08/14 03:52:03;;;;;;;4.43;3.53;;;;;;;25.36;35.36;100887.78;5025690;28;20054;-63
2022/08/14 03:54:34;;;;;;;4.05;3.05;;;;;;;25.33;35.71;100879.38;5025066;28;20526;-62
2022/08/14 03:57:04;;;;;;;5.65;3.58;;;;;;;25.29;35.83;100884.69;5026478;28;20050;-63
2022/08/14 03:59:32;;;;;;;4.38;3.40;;;;;;;25.27;35.83;100887.78;5028876;28;20053;-63
2022/08/14 04:02:02;;;;;;;5.78;3.30;;;;;;;25.26;35.72;100886.16;5029149;28;20077;-63
2022/08/14 04:04:32;;;;;;;4.22;3.60;;;;;;;25.26;35.71;100883.41;5043904;28;20049;-63
2022/08/14 04:07:00;;;;;;;5.13;3.10;;;;;;;25.20;35.71;100884.69;5047703;28;20458;-63
2022/08/14 04:09:28;;;;;;;7.32;3.65;;;;;;;25.20;35.76;100884.69;5028606;28;20057;-62
2022/08/14 04:11:58;;;;;;;4.47;3.40;;;;;;;25.19;35.91;100880.31;5028426;28;20050;-63
2022/08/14 04:14:29;;;;;;;4.70;3.22;;;;;;;25.16;35.88;100874.63;5028805;28;20057;-62
2022/08/14 04:17:03;;;;;;;5.88;3.20;;;;;;;25.14;36.01;100874.94;5028364;28;20057;-63
2022/08/14 04:19:36;;;;;;;6.97;3.90;;;;;;;25.11;36.10;100870.09;5027712;28;20084;-63
2022/08/14 04:22:05;;;;;;;4.07;3.40;;;;;;;25.08;36.13;100867.97;5028193;28;20081;-63
2022/08/14 04:24:33;;;;;;;4.95;3.78;;;;;;;25.06;35.93;100859.22;5028341;28;20050;-62
2022/08/14 04:27:07;;;;;;;6.20;2.92;;;;;;;25.06;36.05;100872.16;5028282;28;20052;-62
2022/08/14 04:29:38;;;;;;;5.10;3.47;;;;;;;25.03;36.31;100870.06;5035287;28;20067;-62
2022/08/14 04:32:07;;;;;;;6.70;3.28;;;;;;;25.00;35.94;100863.25;5048233;28;20061;-63
2022/08/14 04:34:55;;;;;;;4.38;3.50;;;;;;;24.94;36.09;100848.00;5040882;28;20499;-63
2022/08/14 04:45:45;;;;;;;8.15;3.30;;;;;;;24.87;36.43;100850.38;5028488;28;20073;-63
2022/08/14 04:48:19;;;;;;;7.05;3.92;;;;;;;24.85;36.29;100845.22;5027991;28;20550;-62
2022/08/14 04:51:10;;;;;;;6.70;3.60;;;;;;;24.84;36.44;100842.78;5028230;28;20109;-63
2022/08/14 04:53:42;;;;;;;4.32;3.50;;;;;;;24.82;36.16;100851.34;5027790;28;20057;-62
2022/08/14 04:56:13;;;;;;;6.57;3.53;;;;;;;24.79;36.24;100843.72;5027619;28;20109;-62
2022/08/14 04:59:03;;;;;;;3.80;3.28;;;;;;;24.78;36.53;100836.63;5028062;28;20062;-62
2022/08/14 05:01:40;;;;;;;5.60;3.78;;;;;;;24.77;36.35;100828.69;5042874;28;20051;-62
2022/08/14 05:04:16;;;;;;;4.22;3.20;;;;;;;24.76;36.84;100832.56;5039951;28;20081;-63
2022/08/14 05:06:50;;;;;;;6.85;4.13;;;;;;;24.75;36.76;100839.19;5027815;28;20076;-62
2022/08/14 05:09:21;;;;;;;5.93;3.70;;;;;;;24.71;36.62;100832.69;5027934;28;20061;-63
2022/08/14 05:11:49;;;;;;;6.47;3.85;;;;;;;24.70;36.97;100840.13;5027395;28;20073;-63
2022/08/14 05:14:21;;;;;;;5.15;3.78;;;;;;;24.70;36.72;100840.13;5036882;28;20053;-63
2022/08/14 05:17:10;;;;;;;4.28;3.50;;;;;;;24.68;36.98;100831.41;5041189;28;20052;-63
2022/08/14 05:19:38;;;;;;;4.35;3.95;;;;;;;24.65;36.97;100838.34;5027520;28;20050;-63
2022/08/14 05:22:25;;;;;;;5.75;4.07;;;;;;;24.64;36.91;100833.97;5027528;28;20056;-63
2022/08/14 05:24:53;;;;;;;4.90;3.90;;;;;;;24.64;37.09;100833.16;5026910;28;20076;-63
2022/08/14 05:27:21;;;;;;;7.63;4.57;;;;;;;24.62;36.90;100832.66;5027602;28;20065;-63
2022/08/14 05:29:53;;;;;;;9.18;4.43;;;;;;;24.60;36.85;100832.97;5027398;28;20046;-63
2022/08/14 05:32:23;;;;;;;6.85;4.20;;;;;;;24.60;37.22;100832.16;5027378;28;20057;-63
2022/08/14 05:34:56;;;;;;;8.05;4.78;;;;;;;24.59;37.07;100831.34;5027291;28;20056;-63
2022/08/14 05:37:26;;;;;;;5.35;4.25;;;;;;;24.60;37.19;100832.16;5027389;28;20104;-63
2022/08/14 05:39:55;;;;;;;5.82;4.47;;;;;;;24.57;37.09;100838.28;5026854;28;20133;-63
2022/08/14 05:42:23;;;;;;;6.07;4.10;;;;;;;24.55;37.18;100835.06;5027136;28;20064;-63
2022/08/14 05:44:59;;;;;;;7.85;4.28;;;;;;;24.54;37.06;100834.25;5027234;28;20050;-63
2022/08/14 05:47:28;;;;;;;6.95;3.95;;;;;;;24.54;37.48;100823.25;5026894;28;20046;-63
2022/08/14 05:50:08;;;;;;;6.72;3.88;;;;;;;24.53;37.26;100818.88;5027384;28;20065;-62
2022/08/14 05:52:44;;;;;;;4.35;3.50;;;;;;;24.53;37.24;100821.63;5026981;28;20056;-63
2022/08/14 05:55:12;;;;;;;6.20;4.47;;;;;;;24.53;37.61;100820.81;5026493;28;20077;-63
2022/08/14 05:57:48;;;;;;;5.88;4.25;;;;;;;24.49;37.67;100823.38;5026722;28;20480;-63
2022/08/14 06:00:18;;;;;;;6.93;4.00;;;;;;;24.51;37.79;100825.81;5026877;28;20042;-63
2022/08/14 06:02:57;;;;;;;6.53;4.60;;;;;;;24.49;37.59;100817.88;5026659;28;20124;-63
2022/08/14 06:05:28;;;;;;;6.82;4.18;;;;;;;24.49;37.91;100825.31;5026663;28;20081;-63
2022/08/14 06:07:57;;;;;;;7.22;4.47;;;;;;;24.51;37.57;100829.38;5026796;28;20081;-63
2022/08/14 06:10:25;;;;;;;6.22;3.92;;;;;;;24.53;37.82;100824.38;5026386;28;20081;-63
2022/08/14 06:12:55;;;;;;;4.82;4.00;;;;;;;24.58;37.42;100826.19;5027161;28;20053;-63
2022/08/14 06:15:32;;;;;;;12.95;4.28;;;;;;;24.62;37.87;100825.22;5026561;28;20084;-63
2022/08/14 06:18:01;;;;;;;5.07;3.88;;;;;;;24.65;37.71;100819.09;5026405;28;20050;-63
2022/08/14 06:20:30;;;;;;;5.15;3.80;;;;;;;24.70;37.70;100820.91;5026389;28;20161;-63
2022/08/14 06:23:01;;;;;;;5.90;4.07;;;;;;;24.73;37.75;100814.75;5026510;28;20138;-63
2022/08/14 06:25:29;;;;;;;5.05;4.03;;;;;;;24.76;37.79;100816.06;5026100;28;20077;-63
2022/08/14 06:27:57;;;;;;;6.57;4.00;;;;;;;24.78;37.73;100816.56;5026434;28;20073;-63
2022/08/14 06:30:33;;;;;;;5.63;4.00;;;;;;;24.80;37.69;100817.88;5026543;28;20045;-63
2022/08/14 06:33:16;;;;;;;5.65;4.10;;;;;;;24.82;37.55;100815.59;5026674;28;20045;-63
2022/08/14 06:35:46;;;;;;;6.15;4.00;;;;;;;24.84;37.57;100818.03;5026100;28;20056;-63
2022/08/14 06:38:17;;;;;;;4.90;4.18;;;;;;;24.84;37.83;100809.78;5026209;28;20128;-63
2022/08/14 06:40:46;;;;;;;4.43;3.88;;;;;;;24.86;38.11;100815.78;5025917;28;20061;-63
2022/08/14 06:43:15;;;;;;;5.28;4.00;;;;;;;24.88;37.85;100814.34;5026343;28;20506;-64
2022/08/14 06:45:45;;;;;;;5.80;4.47;;;;;;;24.88;37.76;100803.34;5025863;28;20050;-64
2022/08/14 06:48:24;;;;;;;6.63;4.00;;;;;;;24.92;38.08;100801.56;5026071;28;20046;-63
2022/08/14 06:50:55;;;;;;;6.45;4.53;;;;;;;24.92;38.07;100806.25;5026362;28;20084;-63
2022/08/14 06:53:24;;;;;;;5.03;3.80;;;;;;;24.95;38.19;100811.94;5025962;28;20049;-62
2022/08/14 06:55:55;;;;;;;5.70;4.32;;;;;;;24.97;37.96;100806.94;5025862;28;20181;-63
2022/08/14 06:58:28;;;;;;;6.75;4.57;;;;;;;25.00;38.36;100811.00;5026140;28;20060;-63
2022/08/14 07:06:49;;;;;;;4.68;4.07;;;;;;;25.06;38.29;100795.97;5045782;28;20045;-64
2022/08/14 07:09:18;;;;;;;6.05;4.10;;;;;;;25.08;38.22;100798.41;5045555;28;20518;-63
2022/08/14 07:11:50;;;;;;;7.47;4.50;;;;;;;25.07;38.03;100797.59;5026089;28;20057;-62
2022/08/14 07:14:18;;;;;;;5.07;4.25;;;;;;;25.07;38.24;100788.53;5025737;28;20396;-64
2022/08/14 07:16:46;;;;;;;5.40;3.97;;;;;;;25.05;38.13;100791.59;5025743;28;20049;-62
2022/08/14 07:19:18;;;;;;;4.78;4.28;;;;;;;25.02;38.96;100784.00;5025710;28;20049;-62
2022/08/14 07:21:48;;;;;;;7.93;3.90;;;;;;;25.03;38.43;100787.56;5026271;28;20050;-62
2022/08/14 07:24:17;;;;;;;9.02;4.05;;;;;;;25.02;38.28;100799.69;5025638;28;20058;-62
2022/08/14 07:26:57;;;;;;;6.20;4.55;;;;;;;25.01;38.39;100789.81;5025405;28;20057;-61
2022/08/14 07:29:26;;;;;;;5.28;4.10;;;;;;;24.99;38.37;100801.13;5025968;28;20076;-62
2022/08/14 07:31:55;;;;;;;5.07;3.72;;;;;;;24.98;38.63;100799.50;5026445;28;20060;-62
2022/08/14 07:34:24;;;;;;;6.00;4.18;;;;;;;24.98;38.37;100797.56;5029013;28;20073;-62
2022/08/14 07:37:03;;;;;;;4.97;4.18;;;;;;;24.97;38.75;100792.41;5032511;28;20403;-62
2022/08/14 07:39:31;;;;;;;6.72;4.50;;;;;;;24.97;38.97;100792.41;5049115;28;20081;-61
2022/08/14 07:42:01;;;;;;;8.35;4.30;;;;;;;24.98;38.78;100789.31;5037409;28;20056;-61
2022/08/14 07:44:28;;;;;;;6.47;4.13;;;;;;;24.97;38.76;100787.72;5029025;28;20077;-62
2022/08/14 07:47:14;;;;;;;5.72;3.70;;;;;;;24.97;38.96;100786.91;5031175;28;20045;-62
2022/08/14 07:49:54;;;;;;;5.63;4.35;;;;;;;24.97;38.83;100784.16;5048934;28;20056;-61
2022/08/14 07:52:23;;;;;;;8.70;4.18;;;;;;;24.97;39.07;100792.41;5049086;28;20403;-62
2022/08/14 07:54:57;;;;;;;5.47;4.00;;;;;;;24.97;38.89;100786.91;5048486;28;20406;-61
2022/08/14 07:57:26;;;;;;;6.50;3.70;;;;;;;25.00;39.18;100790.94;5033753;28;20072;-61
2022/08/14 07:59:54;;;;;;;5.75;4.45;;;;;;;24.97;39.06;100795.94;5028894;28;20056;-61
2022/08/14 08:02:22;;;;;;;5.43;4.55;;;;;;;24.97;38.76;100790.47;5029004;28;20054;-61
2022/08/14 08:04:53;;;;;;;5.00;3.88;;;;;;;24.98;38.92;100797.56;5040313;28;20084;-61
2022/08/14 08:07:30;;;;;;;5.97;4.03;;;;;;;24.98;39.03;100792.06;5048705;28;20172;-62
2022/08/14 08:10:29;;;;;;;5.40;3.92;;;;;;;24.96;39.12;100782.50;5047187;28;20084;-61
2022/08/14 08:13:12;;;;;;;5.05;3.85;;;;;;;25.01;39.42;100790.63;5048580;28;20055;-61
2022/08/14 08:15:43;;;;;;;7.35;4.03;;;;;;;25.01;38.72;100785.13;5048283;28;20525;-62
2022/08/14 08:18:15;;;;;;;6.13;4.22;;;;;;;25.03;39.31;100779.31;5044875;28;20108;-61
2022/08/14 08:20:58;;;;;;;5.13;3.53;;;;;;;25.03;39.16;100769.13;5028879;28;20046;-61
2022/08/14 08:23:32;;;;;;;8.55;4.55;;;;;;;25.03;39.21;100763.63;5028628;28;20050;-61
2022/08/14 08:26:07;;;;;;;4.13;3.60;;;;;;;25.04;39.16;100759.72;5029215;28;20126;-64
2022/08/14 08:28:35;;;;;;;7.43;3.85;;;;;;;25.06;39.19;100770.41;5048216;28;20073;-62
2022/08/14 08:31:06;;;;;;;7.93;3.60;;;;;;;25.06;38.90;100762.97;5048258;28;20054;-62
2022/08/14 08:33:35;;;;;;;4.10;3.47;;;;;;;25.06;39.23;100765.72;5048416;28;20109;-61
2022/08/14 08:36:10;;;;;;;5.05;3.97;;;;;;;25.07;39.41;100770.09;5029903;28;20045;-61
2022/08/14 08:38:45;;;;;;;7.00;3.90;;;;;;;25.08;39.36;100774.47;5028379;28;20046;-62
2022/08/14 08:41:43;;;;;;;5.43;3.55;;;;;;;25.10;39.78;100769.44;5027752;28;20060;-61
2022/08/14 08:44:11;;;;;;;4.80;3.83;;;;;;;25.12;39.05;100771.88;5035597;28;20115;-61
2022/08/14 08:47:01;;;;;;;4.38;3.78;;;;;;;25.15;39.23;100776.75;5047654;28;20115;-62
2022/08/14 08:49:41;;;;;;;7.20;4.15;;;;;;;25.15;39.51;100761.03;5047869;28;20045;-63
2022/08/14 08:52:22;;;;;;;5.07;3.90;;;;;;;25.17;39.42;100756.03;5034430;28;20054;-64
2022/08/14 08:54:55;;;;;;;4.72;3.63;;;;;;;25.19;39.51;100758.47;5027825;28;20050;-61
2022/08/14 08:57:23;;;;;;;6.45;3.80;;;;;;;25.21;39.72;100756.19;5027768;28;20057;-61
2022/08/14 08:59:51;;;;;;;5.22;4.25;;;;;;;25.24;39.34;100756.38;5028158;28;20049;-61
2022/08/14 09:02:25;;;;;;;6.13;4.05;;;;;;;25.26;39.37;100754.09;5032166;28;20052;-61
2022/08/14 09:05:02;;;;;;;6.13;3.75;;;;;;;25.28;39.36;100751.84;5047472;28;20400;-62
2022/08/14 09:07:31;;;;;;;4.43;3.53;;;;;;;25.29;39.29;100744.38;5047688;28;20068;-61
2022/08/14 09:10:00;;;;;;;7.30;4.18;;;;;;;25.31;39.38;100742.13;5047482;28;20296;-61
2022/08/14 09:12:28;;;;;;;9.90;4.30;;;;;;;25.31;39.83;100744.88;5046047;28;20053;-61
2022/08/14 09:15:00;;;;;;;9.00;4.13;;;;;;;25.35;39.85;100737.59;5047317;28;20095;-61
2022/08/14 09:17:28;;;;;;;5.60;3.97;;;;;;;25.38;40.00;100738.88;5047202;28;20049;-61
2022/08/14 09:19:57;;;;;;;4.55;4.05;;;;;;;25.40;40.01;100740.19;5047278;28;20080;-61
2022/08/14 09:22:32;;;;;;;7.47;3.95;;;;;;;25.44;39.84;100737.59;5031507;28;20050;-62
2022/08/14 09:25:09;;;;;;;4.47;3.58;;;;;;;25.47;39.86;100734.19;5027075;28;20056;-61
2022/08/14 09:27:38;;;;;;;5.60;4.00;;;;;;;25.50;39.66;100737.09;5046837;28;20049;-61
2022/08/14 09:30:08;;;;;;;7.47;3.67;;;;;;;25.53;40.04;100739.22;5047143;28;20049;-61
2022/08/14 09:33:14;;;;;;;5.03;3.42;;;;;;;25.58;40.05;100743.75;5047192;28;20049;-61
2022/08/14 09:36:01;;;;;;;4.60;3.70;;;;;;;25.63;39.95;100740.81;5029382;28;20137;-61
2022/08/14 09:38:44;;;;;;;8.20;3.65;;;;;;;25.66;39.87;100726.44;5027175;28;20049;-61
2022/08/14 09:41:23;;;;;;;3.97;3.40;;;;;;;25.68;39.59;100713.16;5026580;28;20141;-62
2022/08/14 09:43:58;;;;;;;5.25;3.58;;;;;;;25.71;39.60;100718.00;5027056;28;20076;-61
2022/08/14 09:46:31;;;;;;;4.43;3.63;;;;;;;25.74;39.64;100711.03;5027037;28;20081;-61
2022/08/14 09:48:59;;;;;;;7.85;4.03;;;;;;;25.79;39.72;100705.38;5027039;28;20053;-61
2022/08/14 09:51:30;;;;;;;4.72;3.80;;;;;;;25.81;39.79;100695.63;5027298;28;20049;-61
2022/08/14 09:54:12;;;;;;;5.55;3.88;;;;;;;25.90;39.53;100703.88;5026080;28;20554;-61
2022/08/14 09:56:51;;;;;;;4.93;3.55;;;;;;;25.96;39.82;100704.50;5026452;28;20073;-62
2022/08/14 09:59:26;;;;;;;5.28;4.30;;;;;;;26.00;39.56;100702.72;5026928;28;20052;-62
2022/08/14 10:01:59;;;;;;;6.40;3.28;;;;;;;26.03;39.54;100691.81;5026491;28;20057;-61
2022/08/14 10:04:28;;;;;;;4.72;3.47;;;;;;;26.06;39.39;100690.34;5026496;28;20086;-62
2022/08/14 10:07:05;;;;;;;4.20;3.63;;;;;;;26.07;39.49;100679.00;5026480;28;20053;-61
2022/08/14 10:09:48;;;;;;;4.20;3.70;;;;;;;26.11;39.61;100684.66;5026384;28;20049;-62
2022/08/14 10:12:47;;;;;;;7.45;3.88;;;;;;;26.16;39.84;100684.47;5026231;28;20045;-62
2022/08/14 10:15:21;;;;;;;5.30;3.63;;;;;;;26.21;39.72;100676.84;5026467;28;20060;-62
2022/08/14 10:18:02;;;;;;;6.07;3.50;;;;;;;26.25;39.60;100672.28;5039132;28;20045;-62
2022/08/14 10:20:33;;;;;;;6.05;3.95;;;;;;;26.28;39.46;100670.81;5045305;28;20049;-62
2022/08/14 10:23:15;;;;;;;3.78;3.15;;;;;;;26.32;39.43;100662.72;5026350;28;20054;-61
2022/08/14 10:25:49;;;;;;;3.90;3.40;;;;;;;26.36;39.54;100663.69;5025782;28;20046;-61
2022/08/14 10:28:22;;;;;;;5.15;3.47;;;;;;;26.41;39.80;100667.06;5026288;28;20046;-62
2022/08/14 10:31:18;;;;;;;5.05;3.67;;;;;;;26.48;40.01;100656.31;5026369;28;20060;-61
2022/08/14 10:34:04;;;;;;;4.57;3.40;;;;;;;26.57;40.03;100659.00;5026436;28;20056;-62
2022/08/14 10:36:43;;;;;;;8.23;3.80;;;;;;;26.63;39.84;100656.88;5034082;28;20064;-62
2022/08/14 10:39:17;;;;;;;4.90;3.55;;;;;;;26.66;39.55;100645.19;5045810;28;20503;-62
2022/08/14 10:41:47;;;;;;;5.70;3.65;;;;;;;26.69;39.34;100650.03;5044065;28;20092;-62
2022/08/14 10:44:24;;;;;;;6.38;3.40;;;;;;;26.75;39.66;100643.97;5045852;28;20049;-62
2022/08/14 10:46:57;;;;;;;4.07;3.10;;;;;;;26.82;39.53;100643.44;5026653;28;20053;-62
2022/08/14 10:49:56;;;;;;;3.65;3.22;;;;;;;26.88;39.43;100644.84;5025973;28;20046;-62
2022/08/14 10:52:28;;;;;;;4.65;3.42;;;;;;;26.92;39.16;100652.13;5026010;28;20054;-62
2022/08/14 10:55:07;;;;;;;5.20;3.60;;;;;;;26.98;39.41;100638.97;5025455;28;20080;-62
2022/08/14 10:57:47;;;;;;;4.00;3.22;;;;;;;27.03;39.29;100641.50;5025708;28;20072;-62
2022/08/14 11:00:19;;;;;;;5.82;3.53;;;;;;;27.05;39.18;100636.47;5026195;28;20041;-62
2022/08/14 11:03:08;;;;;;;6.55;3.60;;;;;;;27.10;39.22;100647.28;5025811;28;20065;-62
2022/08/14 11:05:42;;;;;;;6.05;3.58;;;;;;;27.14;39.15;100642.72;5025988;28;20109;-62
2022/08/14 11:08:13;;;;;;;4.55;3.47;;;;;;;27.17;39.15;100635.72;5035213;28;20045;-62
2022/08/14 11:10:47;;;;;;;3.47;3.15;;;;;;;27.22;39.12;100636.31;5049373;28;20077;-62
2022/08/14 11:13:22;;;;;;;6.97;3.60;;;;;;;27.27;39.15;100634.50;5037626;28;20058;-62
2022/08/14 11:15:53;;;;;;;4.90;3.40;;;;;;;27.30;39.30;100629.09;5029620;28;20065;-62
2022/08/14 11:18:22;;;;;;;5.15;3.47;;;;;;;27.37;39.01;100634.06;5029529;28;20050;-62
2022/08/14 11:21:05;;;;;;;6.40;3.90;;;;;;;27.40;38.94;100627.88;5029850;28;20060;-62
2022/08/14 11:23:37;;;;;;;5.90;3.28;;;;;;;27.43;38.61;100618.91;5048528;28;20049;-62
2022/08/14 11:26:09;;;;;;;4.78;3.17;;;;;;;27.48;38.80;100619.50;5048814;28;20053;-62
2022/08/14 11:28:40;;;;;;;4.43;3.35;;;;;;;27.56;38.46;100615.03;5049458;28;20049;-62
2022/08/14 11:31:18;;;;;;;4.63;3.42;;;;;;;27.62;38.69;100621.97;5045398;28;20125;-62
2022/08/14 11:33:50;;;;;;;5.35;3.47;;;;;;;27.68;38.72;100617.84;5029433;28;20053;-62
2022/08/14 11:36:22;;;;;;;4.50;3.35;;;;;;;27.76;38.74;100618.88;5029499;28;20077;-62
2022/08/14 11:38:50;;;;;;;4.88;3.30;;;;;;;27.82;38.44;100598.97;5029513;28;20049;-62
2022/08/14 11:41:20;;;;;;;4.90;3.30;;;;;;;27.82;37.95;100592.63;5028999;28;20123;-62
2022/08/14 11:43:52;;;;;;;4.95;4.13;;;;;;;27.88;38.52;100592.06;5029591;28;20076;-62
2022/08/14 11:46:25;;;;;;;4.80;3.15;;;;;;;27.97;38.36;100597.47;5028845;28;20046;-62
2022/08/14 11:49:04;;;;;;;5.45;3.63;;;;;;;27.99;38.25;100584.13;5029017;28;20046;-62
2022/08/14 11:51:35;;;;;;;6.80;3.83;;;;;;;28.05;38.19;100577.22;5029413;28;20054;-62
2022/08/14 11:54:21;;;;;;;4.05;3.22;;;;;;;28.15;38.46;100567.66;5029024;28;20046;-62
2022/08/14 11:57:02;;;;;;;4.78;3.88;;;;;;;28.20;38.29;100570.19;5028876;28;20515;-62
2022/08/14 11:59:32;;;;;;;4.38;3.35;;;;;;;28.28;38.16;100571.25;5029405;28;20037;-62
2022/08/14 12:02:09;;;;;;;3.92;2.90;;;;;;;28.34;38.03;100561.56;5028909;28;20507;-62
2022/08/14 12:04:57;;;;;;;3.75;3.25;;;;;;;28.38;37.98;100562.47;5028892;28;20136;-62
2022/08/14 12:07:25;;;;;;;8.38;3.45;;;;;;;28.39;38.19;100555.78;5028920;28;20058;-62
2022/08/14 12:09:58;;;;;;;4.22;3.67;;;;;;;28.42;38.33;100552.31;5028972;28;20050;-62
2022/08/14 12:12:28;;;;;;;3.90;3.08;;;;;;;28.49;38.33;100556.09;5028363;28;20057;-62
2022/08/14 12:15:05;;;;;;;4.10;3.10;;;;;;;28.57;38.56;100554.34;5028583;28;20057;-62